sensor_id;sensor_type;location;lat;lon;timestamp;pressure;altitude;pressure_sealevel;temperature;humidity
5883;BME280;2967;51.488;6.618;2022-08-24T00:04:55;101238.09;;;21.63;100.00
5883;BME280;2967;51.488;6.618;2022-08-24T00:09:59;101375.75;;;22.96;97.51
5883;BME280;2967;51.488;6.618;2022-08-24T00:15:04;101323.56;;;22.38;99.38
5883;BME280;2967;51.488;6.618;2022-08-24T00:20:09;101197.78;;;20.51;100.00
5883;BME280;2967;51.488;6.618;2022-08-24T00:25:14;101033.84;;;19.27;100.00
5883;BME280;2967;51.488;6.618;2022-08-24T00:30:19;101394.69;;;22.37;100.00
5883;BME280;2967;51.488;6.618;2022-08-24T00:35:23;101226.16;;;20.98;100.00
5883;BME280;2967;51.488;6.618;2022-08-24T00:40:30;101176.69;;;20.11;100.00
5883;BME280;2967;51.488;6.618;2022-08-24T00:45:44;101156.47;;;20.52;100.00
5883;BME280;2967;51.488;6.618;2022-08-24T00:50:52;101369.03;;;22.33;100.00
5883;BME280;2967;51.488;6.618;2022-08-24T00:56:01;101127.38;;;20.03;100.00
5883;BME280;2967;51.488;6.618;2022-08-24T01:01:07;101373.44;;;22.08;100.00
5883;BME280;2967;51.488;6.618;2022-08-24T01:06:13;101408.47;;;22.59;100.00
5883;BME280;2967;51.488;6.618;2022-08-24T01:11:23;101019.53;;;20.50;99.75
5883;BME280;2967;51.488;6.618;2022-08-24T01:16:42;101366.47;;;22.49;100.00
5883;BME280;2967;51.488;6.618;2022-08-24T01:22:14;101389.00;;;22.73;100.00
5883;BME280;2967;51.488;6.618;2022-08-24T01:27:23;101292.28;;;22.11;100.00
5883;BME280;2967;51.488;6.618;2022-08-24T01:32:31;101343.88;;;22.50;100.00
5883;BME280;2967;51.488;6.618;2022-08-24T01:37:37;101307.13;;;21.65;100.00
5883;BME280;2967;51.488;6.618;2022-08-24T01:42:48;101329.16;;;21.43;100.00
5883;BME280;2967;51.488;6.618;2022-08-24T01:47:51;101355.16;;;22.45;100.00
5883;BME280;2967;51.488;6.618;2022-08-24T01:52:55;101328.41;;;22.26;100.00
5883;BME280;2967;51.488;6.618;2022-08-24T01:58:16;101407.91;;;22.48;100.00
5883;BME280;2967;51.488;6.618;2022-08-24T02:03:25;101350.91;;;22.17;100.00
5883;BME280;2967;51.488;6.618;2022-08-24T02:08:34;101405.91;;;21.81;100.00
5883;BME280;2967;51.488;6.618;2022-08-24T02:13:40;101406.38;;;22.45;100.00
5883;BME280;2967;51.488;6.618;2022-08-24T02:18:44;101407.31;;;22.36;100.00
5883;BME280;2967;51.488;6.618;2022-08-24T05:26:46;101469.56;;;21.21;100.00
5883;BME280;2967;51.488;6.618;2022-08-24T05:32:02;101471.00;;;21.60;100.00
5883;BME280;2967;51.488;6.618;2022-08-24T05:37:17;101431.47;;;21.16;100.00
5883;BME280;2967;51.488;6.618;2022-08-24T05:42:37;101462.16;;;21.84;100.00
5883;BME280;2967;51.488;6.618;2022-08-24T05:47:42;101403.28;;;21.20;100.00
5883;BME280;2967;51.488;6.618;2022-08-24T05:53:04;101474.19;;;21.01;100.00
5883;BME280;2967;51.488;6.618;2022-08-24T05:58:09;101474.53;;;21.16;100.00
5883;BME280;2967;51.488;6.618;2022-08-24T06:03:27;101484.84;;;21.99;100.00
5883;BME280;2967;51.488;6.618;2022-08-24T06:08:30;101483.84;;;22.18;100.00
5883;BME280;2967;51.488;6.618;2022-08-24T06:13:37;101488.72;;;21.79;100.00
5883;BME280;2967;51.488;6.618;2022-08-24T06:18:40;101490.78;;;22.20;100.00
5883;BME280;2967;51.488;6.618;2022-08-24T06:23:45;101486.47;;;22.10;100.00
5883;BME280;2967;51.488;6.618;2022-08-24T06:28:49;101397.13;;;21.27;100.00
5883;BME280;2967;51.488;6.618;2022-08-24T06:33:54;101497.44;;;22.34;100.00
5883;BME280;2967;51.488;6.618;2022-08-24T06:38:57;101431.28;;;21.96;100.00
5883;BME280;2967;51.488;6.618;2022-08-24T06:44:03;101475.34;;;22.30;100.00
5883;BME280;2967;51.488;6.618;2022-08-24T06:49:19;101477.81;;;22.24;100.00
5883;BME280;2967;51.488;6.618;2022-08-24T06:54:22;101519.56;;;22.63;100.00
5883;BME280;2967;51.488;6.618;2022-08-24T06:59:27;101518.16;;;22.76;100.00
5883;BME280;2967;51.488;6.618;2022-08-24T07:04:31;101519.31;;;22.74;100.00
5883;BME280;2967;51.488;6.618;2022-08-24T07:09:53;101520.84;;;22.76;100.00
5883;BME280;2967;51.488;6.618;2022-08-24T07:14:57;101516.59;;;22.99;100.00
5883;BME280;2967;51.488;6.618;2022-08-24T07:20:00;101517.72;;;23.14;100.00
5883;BME280;2967;51.488;6.618;2022-08-24T07:25:33;101534.00;;;23.30;100.00
5883;BME280;2967;51.488;6.618;2022-08-24T07:30:39;101507.16;;;23.29;100.00
5883;BME280;2967;51.488;6.618;2022-08-24T07:35:43;101526.31;;;23.59;99.42
5883;BME280;2967;51.488;6.618;2022-08-24T07:40:46;101531.25;;;23.80;92.97
5883;BME280;2967;51.488;6.618;2022-08-24T07:46:10;101533.84;;;23.97;91.79
5883;BME280;2967;51.488;6.618;2022-08-24T07:51:16;101516.28;;;24.01;91.08
5883;BME280;2967;51.488;6.618;2022-08-24T07:56:19;101528.63;;;24.20;91.44
5883;BME280;2967;51.488;6.618;2022-08-24T08:01:25;101487.22;;;24.03;90.20
5883;BME280;2967;51.488;6.618;2022-08-24T08:06:29;101538.09;;;24.40;90.00
5883;BME280;2967;51.488;6.618;2022-08-24T08:11:35;101546.41;;;24.54;87.23
5883;BME280;2967;51.488;6.618;2022-08-24T08:16:39;101500.22;;;24.32;88.03
5883;BME280;2967;51.488;6.618;2022-08-24T08:21:43;101547.38;;;24.69;85.22
5883;BME280;2967;51.488;6.618;2022-08-24T08:27:08;101552.25;;;24.89;85.08
5883;BME280;2967;51.488;6.618;2022-08-24T08:32:17;101531.63;;;24.80;85.78
5883;BME280;2967;51.488;6.618;2022-08-24T08:37:22;101550.72;;;24.95;86.10
5883;BME280;2967;51.488;6.618;2022-08-24T08:42:47;101561.53;;;25.11;84.24
5883;BME280;2967;51.488;6.618;2022-08-24T08:48:20;101565.50;;;25.39;81.83
5883;BME280;2967;51.488;6.618;2022-08-24T08:53:54;101485.06;;;25.01;83.05
5883;BME280;2967;51.488;6.618;2022-08-24T08:59:17;101546.88;;;25.36;84.66
5883;BME280;2967;51.488;6.618;2022-08-24T09:04:46;101551.72;;;25.56;83.48
5883;BME280;2967;51.488;6.618;2022-08-24T09:10:07;101555.56;;;25.62;83.50
5883;BME280;2967;51.488;6.618;2022-08-24T09:15:31;101553.94;;;25.75;80.42
5883;BME280;2967;51.488;6.618;2022-08-24T09:21:01;101515.22;;;25.67;80.40
5883;BME280;2967;51.488;6.618;2022-08-24T09:26:17;101461.47;;;25.48;79.30
5883;BME280;2967;51.488;6.618;2022-08-24T09:31:34;101518.88;;;25.82;79.89
5883;BME280;2967;51.488;6.618;2022-08-24T09:36:53;101518.66;;;25.91;79.16
5883;BME280;2967;51.488;6.618;2022-08-24T09:42:27;101482.66;;;25.75;76.73
5883;BME280;2967;51.488;6.618;2022-08-24T09:48:14;101502.38;;;25.91;77.98
5883;BME280;2967;51.488;6.618;2022-08-24T09:59:19;101503.94;;;26.31;75.69
5883;BME280;2967;51.488;6.618;2022-08-24T10:04:31;101513.66;;;26.40;75.84
5883;BME280;2967;51.488;6.618;2022-08-24T10:10:04;101508.59;;;26.37;78.45
5883;BME280;2967;51.488;6.618;2022-08-24T10:15:16;101527.53;;;26.45;75.75
5883;BME280;2967;51.488;6.618;2022-08-24T10:20:24;101507.66;;;26.30;79.08
5883;BME280;2967;51.488;6.618;2022-08-24T10:25:36;101440.81;;;26.14;76.32
5883;BME280;2967;51.488;6.618;2022-08-24T10:30:56;101517.88;;;26.79;74.93
5883;BME280;2967;51.488;6.618;2022-08-24T10:36:27;101512.72;;;26.99;76.62
5883;BME280;2967;51.488;6.618;2022-08-24T10:47:52;101395.97;;;26.55;74.25
5883;BME280;2967;51.488;6.618;2022-08-24T10:53:16;101410.50;;;26.62;74.73
5883;BME280;2967;51.488;6.618;2022-08-24T10:58:41;101452.06;;;26.92;74.51
5883;BME280;2967;51.488;6.618;2022-08-24T11:03:49;101451.78;;;27.16;74.15
5883;BME280;2967;51.488;6.618;2022-08-24T11:08:55;101495.84;;;27.47;76.57
5883;BME280;2967;51.488;6.618;2022-08-24T11:14:03;101490.59;;;27.45;75.14
5883;BME280;2967;51.488;6.618;2022-08-24T11:19:12;101434.34;;;27.10;77.90
5883;BME280;2967;51.488;6.618;2022-08-24T11:24:28;101489.50;;;27.60;74.73
5883;BME280;2967;51.488;6.618;2022-08-24T11:29:56;101489.13;;;27.78;75.58
5883;BME280;2967;51.488;6.618;2022-08-24T11:35:07;101479.66;;;27.74;79.77
5883;BME280;2967;51.488;6.618;2022-08-24T11:40:12;101476.00;;;27.81;80.22
5883;BME280;2967;51.488;6.618;2022-08-24T11:45:21;101473.91;;;27.83;79.80
5883;BME280;2967;51.488;6.618;2022-08-24T11:50:36;101406.09;;;27.61;76.88
5883;BME280;2967;51.488;6.618;2022-08-24T11:55:46;101434.88;;;28.18;73.47
5883;BME280;2967;51.488;6.618;2022-08-24T12:01:07;101466.94;;;28.44;77.29
5883;BME280;2967;51.488;6.618;2022-08-24T12:06:25;101456.97;;;28.57;68.80
5883;BME280;2967;51.488;6.618;2022-08-24T12:11:38;101452.75;;;28.55;74.00
5883;BME280;2967;51.488;6.618;2022-08-24T12:16:50;101440.72;;;28.70;71.15
5883;BME280;2967;51.488;6.618;2022-08-24T12:21:58;101400.84;;;28.56;71.73
5883;BME280;2967;51.488;6.618;2022-08-24T12:27:07;101451.59;;;28.91;71.92
5883;BME280;2967;51.488;6.618;2022-08-24T12:32:16;101441.09;;;28.95;72.54
5883;BME280;2967;51.488;6.618;2022-08-24T12:37:27;101445.94;;;28.99;73.84
5883;BME280;2967;51.488;6.618;2022-08-24T12:42:41;101422.38;;;28.85;72.17
5883;BME280;2967;51.488;6.618;2022-08-24T12:47:58;101412.25;;;29.07;73.92
5883;BME280;2967;51.488;6.618;2022-08-24T12:53:23;101419.44;;;29.34;73.58
5883;BME280;2967;51.488;6.618;2022-08-24T12:58:46;101386.72;;;29.27;70.62
5883;BME280;2967;51.488;6.618;2022-08-24T13:04:06;101434.88;;;29.80;73.28
5883;BME280;2967;51.488;6.618;2022-08-24T13:09:16;101445.00;;;30.06;69.86
5883;BME280;2967;51.488;6.618;2022-08-24T13:14:29;101436.63;;;30.07;71.90
5883;BME280;2967;51.488;6.618;2022-08-24T13:19:38;101448.38;;;30.14;71.31
5883;BME280;2967;51.488;6.618;2022-08-24T13:24:43;101429.06;;;30.35;63.47
5883;BME280;2967;51.488;6.618;2022-08-24T13:29:51;101416.25;;;30.42;67.87
5883;BME280;2967;51.488;6.618;2022-08-24T13:34:57;101435.34;;;30.49;63.61
5883;BME280;2967;51.488;6.618;2022-08-24T13:40:05;101431.34;;;30.45;67.57
5883;BME280;2967;51.488;6.618;2022-08-24T13:45:33;101429.88;;;30.29;67.24
5883;BME280;2967;51.488;6.618;2022-08-24T13:50:45;101426.94;;;30.05;56.01
5883;BME280;2967;51.488;6.618;2022-08-24T13:55:54;101361.03;;;29.69;64.30
5883;BME280;2967;51.488;6.618;2022-08-24T14:01:02;101363.97;;;29.87;61.11
5883;BME280;2967;51.488;6.618;2022-08-24T14:06:23;101415.00;;;30.19;66.42
5883;BME280;2967;51.488;6.618;2022-08-24T14:11:45;101364.19;;;29.85;62.45
5883;BME280;2967;51.488;6.618;2022-08-24T14:16:57;101403.25;;;30.05;67.26
5883;BME280;2967;51.488;6.618;2022-08-24T14:22:31;101370.66;;;29.58;68.47
5883;BME280;2967;51.488;6.618;2022-08-24T14:27:40;101297.88;;;28.86;68.75
5883;BME280;2967;51.488;6.618;2022-08-24T14:33:00;101368.41;;;29.02;69.49
5883;BME280;2967;51.488;6.618;2022-08-24T14:38:21;101402.78;;;29.09;62.75
5883;BME280;2967;51.488;6.618;2022-08-24T14:43:42;101385.59;;;29.02;69.39
5883;BME280;2967;51.488;6.618;2022-08-24T14:48:56;101383.72;;;29.09;70.21
5883;BME280;2967;51.488;6.618;2022-08-24T14:54:13;101384.78;;;29.08;61.31
5883;BME280;2967;51.488;6.618;2022-08-24T14:59:30;101373.41;;;28.92;69.45
5883;BME280;2967;51.488;6.618;2022-08-24T15:04:44;101367.66;;;28.80;68.31
5883;BME280;2967;51.488;6.618;2022-08-24T15:09:51;101369.69;;;28.65;64.71
5883;BME280;2967;51.488;6.618;2022-08-24T15:14:59;101350.13;;;28.49;69.44
5883;BME280;2967;51.488;6.618;2022-08-24T15:20:08;101352.41;;;28.45;68.25
5883;BME280;2967;51.488;6.618;2022-08-24T15:25:31;101355.47;;;28.70;67.86
5883;BME280;2967;51.488;6.618;2022-08-24T15:30:51;101328.41;;;28.28;69.17
5883;BME280;2967;51.488;6.618;2022-08-24T15:36:08;101349.09;;;28.22;71.27
5883;BME280;2967;51.488;6.618;2022-08-24T15:41:18;101348.41;;;28.14;70.18
5883;BME280;2967;51.488;6.618;2022-08-24T15:46:28;101342.91;;;28.07;69.00
5883;BME280;2967;51.488;6.618;2022-08-24T15:51:43;101336.34;;;27.95;70.95
5883;BME280;2967;51.488;6.618;2022-08-24T15:56:51;101335.06;;;27.91;71.47
5883;BME280;2967;51.488;6.618;2022-08-24T16:02:19;101343.38;;;27.83;68.14
5883;BME280;2967;51.488;6.618;2022-08-24T16:07:32;101297.69;;;27.52;72.21
5883;BME280;2967;51.488;6.618;2022-08-24T16:12:37;101333.13;;;27.64;72.11
5883;BME280;2967;51.488;6.618;2022-08-24T16:17:44;101333.53;;;27.62;70.49
5883;BME280;2967;51.488;6.618;2022-08-24T16:22:54;101337.72;;;27.64;66.56
5883;BME280;2967;51.488;6.618;2022-08-24T16:28:08;101328.88;;;27.56;71.79
5883;BME280;2967;51.488;6.618;2022-08-24T16:33:38;101297.94;;;27.36;71.45
5883;BME280;2967;51.488;6.618;2022-08-24T16:38:46;101299.50;;;27.45;64.58
5883;BME280;2967;51.488;6.618;2022-08-24T16:43:51;101292.25;;;27.52;70.39
5883;BME280;2967;51.488;6.618;2022-08-24T16:48:54;101336.09;;;27.90;68.19
5883;BME280;2967;51.488;6.618;2022-08-24T16:53:57;101280.25;;;27.67;68.89
5883;BME280;2967;51.488;6.618;2022-08-24T16:59:02;101333.81;;;28.21;62.34
5883;BME280;2967;51.488;6.618;2022-08-24T17:04:05;101332.09;;;28.20;67.72
5883;BME280;2967;51.488;6.618;2022-08-24T17:09:08;101309.81;;;28.04;69.66
5883;BME280;2967;51.488;6.618;2022-08-24T17:14:12;101331.91;;;28.22;64.46
5883;BME280;2967;51.488;6.618;2022-08-24T17:19:17;101332.09;;;28.20;68.20
5883;BME280;2967;51.488;6.618;2022-08-24T17:24:24;101336.63;;;28.34;63.58
5883;BME280;2967;51.488;6.618;2022-08-24T17:29:28;101333.00;;;28.27;66.67
5883;BME280;2967;51.488;6.618;2022-08-24T17:34:31;101339.47;;;28.26;66.95
5883;BME280;2967;51.488;6.618;2022-08-24T17:39:35;101340.72;;;28.24;68.24
5883;BME280;2967;51.488;6.618;2022-08-24T17:44:40;101350.53;;;28.18;67.90
5883;BME280;2967;51.488;6.618;2022-08-24T17:49:44;101341.50;;;28.11;69.22
5883;BME280;2967;51.488;6.618;2022-08-24T17:54:47;101351.06;;;28.07;68.13
5883;BME280;2967;51.488;6.618;2022-08-24T17:59:53;101343.28;;;27.98;69.96
5883;BME280;2967;51.488;6.618;2022-08-24T18:04:55;101351.44;;;27.98;71.24
5883;BME280;2967;51.488;6.618;2022-08-24T18:09:58;101333.91;;;27.79;72.79
5883;BME280;2967;51.488;6.618;2022-08-24T18:15:04;101358.66;;;27.84;73.27
5883;BME280;2967;51.488;6.618;2022-08-24T18:20:09;101360.47;;;27.77;72.65
5883;BME280;2967;51.488;6.618;2022-08-24T18:25:14;101359.75;;;27.69;74.38
5883;BME280;2967;51.488;6.618;2022-08-24T18:30:21;101362.59;;;27.61;73.95
5883;BME280;2967;51.488;6.618;2022-08-24T18:35:30;101330.97;;;27.33;74.22
5883;BME280;2967;51.488;6.618;2022-08-24T18:40:34;101372.50;;;27.48;76.41
5883;BME280;2967;51.488;6.618;2022-08-24T18:45:38;101353.06;;;27.30;76.33
5883;BME280;2967;51.488;6.618;2022-08-24T18:50:42;101378.84;;;27.34;75.68
5883;BME280;2967;51.488;6.618;2022-08-24T18:55:45;101368.41;;;27.16;77.69
5883;BME280;2967;51.488;6.618;2022-08-24T19:00:53;101356.53;;;27.03;73.86
5883;BME280;2967;51.488;6.618;2022-08-24T19:05:56;101384.91;;;27.15;74.81
5883;BME280;2967;51.488;6.618;2022-08-24T19:10:59;101388.16;;;27.10;76.50
5883;BME280;2967;51.488;6.618;2022-08-24T19:16:03;101398.56;;;27.07;73.44
5883;BME280;2967;51.488;6.618;2022-08-24T19:21:07;101398.94;;;27.04;74.19
5883;BME280;2967;51.488;6.618;2022-08-24T19:26:09;101374.06;;;26.86;71.20
5883;BME280;2967;51.488;6.618;2022-08-24T19:31:17;101403.44;;;26.97;71.64
5883;BME280;2967;51.488;6.618;2022-08-24T19:36:22;101405.69;;;26.93;75.07
5883;BME280;2967;51.488;6.618;2022-08-24T19:41:25;101404.41;;;26.89;76.23
5883;BME280;2967;51.488;6.618;2022-08-24T19:46:40;101369.69;;;26.70;76.49
5883;BME280;2967;51.488;6.618;2022-08-24T19:51:43;101365.22;;;26.63;73.74
5883;BME280;2967;51.488;6.618;2022-08-24T19:56:46;101400.28;;;26.79;74.19
5883;BME280;2967;51.488;6.618;2022-08-24T20:01:51;101395.41;;;26.74;73.05
5883;BME280;2967;51.488;6.618;2022-08-24T20:06:53;101396.84;;;26.70;73.52
5883;BME280;2967;51.488;6.618;2022-08-24T20:11:56;101349.84;;;26.41;73.03
5883;BME280;2967;51.488;6.618;2022-08-24T20:17:01;101375.31;;;26.54;72.33
5883;BME280;2967;51.488;6.618;2022-08-24T20:22:04;101393.56;;;26.60;72.72
5883;BME280;2967;51.488;6.618;2022-08-24T20:27:18;101360.41;;;26.36;72.78
5883;BME280;2967;51.488;6.618;2022-08-24T20:32:23;101357.41;;;26.31;72.63
5883;BME280;2967;51.488;6.618;2022-08-24T20:37:27;101376.28;;;26.39;72.44
5883;BME280;2967;51.488;6.618;2022-08-24T20:42:32;101301.00;;;25.97;72.74
5883;BME280;2967;51.488;6.618;2022-08-24T20:47:41;101394.38;;;26.46;74.51
5883;BME280;2967;51.488;6.618;2022-08-24T20:52:46;101384.75;;;26.44;75.13
5883;BME280;2967;51.488;6.618;2022-08-24T20:57:51;101318.75;;;26.00;73.75
5883;BME280;2967;51.488;6.618;2022-08-24T21:02:56;101385.47;;;26.38;74.54
5883;BME280;2967;51.488;6.618;2022-08-24T21:07:59;101385.84;;;26.35;73.53
5883;BME280;2967;51.488;6.618;2022-08-24T21:13:03;101353.19;;;26.14;74.34
5883;BME280;2967;51.488;6.618;2022-08-24T21:18:08;101386.59;;;26.29;73.23
5883;BME280;2967;51.488;6.618;2022-08-24T21:23:11;101346.00;;;26.06;74.39
5883;BME280;2967;51.488;6.618;2022-08-24T21:28:17;101332.31;;;26.00;74.36
5883;BME280;2967;51.488;6.618;2022-08-24T21:33:24;101360.38;;;26.07;73.76
5883;BME280;2967;51.488;6.618;2022-08-24T21:38:44;101366.09;;;26.12;73.34
5883;BME280;2967;51.488;6.618;2022-08-24T21:43:50;101381.69;;;26.10;72.20
5883;BME280;2967;51.488;6.618;2022-08-24T21:48:55;101328.50;;;25.72;72.07
5883;BME280;2967;51.488;6.618;2022-08-24T21:53:58;101372.97;;;26.00;71.66
5883;BME280;2967;51.488;6.618;2022-08-24T21:59:00;101393.31;;;26.04;71.72
5883;BME280;2967;51.488;6.618;2022-08-24T22:04:06;101389.25;;;26.00;72.56
5883;BME280;2967;51.488;6.618;2022-08-24T22:09:09;101378.97;;;25.95;70.86
5883;BME280;2967;51.488;6.618;2022-08-24T22:14:12;101392.94;;;26.07;71.13
5883;BME280;2967;51.488;6.618;2022-08-24T22:19:18;101311.28;;;25.65;71.13
5883;BME280;2967;51.488;6.618;2022-08-24T22:24:24;101342.66;;;25.82;70.31
5883;BME280;2967;51.488;6.618;2022-08-24T22:29:27;101309.72;;;25.70;69.67
5883;BME280;2967;51.488;6.618;2022-08-24T22:34:31;101335.94;;;25.92;70.06
5883;BME280;2967;51.488;6.618;2022-08-24T22:39:38;101208.75;;;25.17;70.19
5883;BME280;2967;51.488;6.618;2022-08-24T22:44:41;101390.13;;;26.15;70.31
5883;BME280;2967;51.488;6.618;2022-08-24T22:49:45;101389.47;;;26.13;70.78
5883;BME280;2967;51.488;6.618;2022-08-24T22:54:50;101322.78;;;25.67;70.38
5883;BME280;2967;51.488;6.618;2022-08-24T22:59:54;101382.63;;;26.02;70.29
5883;BME280;2967;51.488;6.618;2022-08-24T23:04:59;101357.22;;;25.81;70.63
5883;BME280;2967;51.488;6.618;2022-08-24T23:10:03;101391.50;;;25.96;70.82
5883;BME280;2967;51.488;6.618;2022-08-24T23:15:07;101391.59;;;25.88;71.05
5883;BME280;2967;51.488;6.618;2022-08-24T23:20:11;101399.19;;;25.85;71.60
5883;BME280;2967;51.488;6.618;2022-08-24T23:25:14;101395.34;;;25.79;71.26
5883;BME280;2967;51.488;6.618;2022-08-24T23:30:17;101392.72;;;25.71;72.06
5883;BME280;2967;51.488;6.618;2022-08-24T23:35:23;101398.50;;;25.68;72.24
5883;BME280;2967;51.488;6.618;2022-08-24T23:40:26;101371.72;;;25.51;72.96
5883;BME280;2967;51.488;6.618;2022-08-24T23:45:29;101386.47;;;25.48;72.94
5883;BME280;2967;51.488;6.618;2022-08-24T23:50:33;101391.28;;;25.38;73.49
5883;BME280;2967;51.488;6.618;2022-08-24T23:55:36;101334.00;;;24.88;74.32
